createdAt,value
2022-11-15T00:02:27.658Z,8.88
2022-11-15T00:05:08.063Z,8.90
2022-11-15T00:07:55.622Z,8.90
2022-11-15T00:10:37.853Z,8.91
2022-11-15T00:13:18.374Z,8.93
2022-11-15T00:16:01.539Z,8.94
2022-11-15T00:18:46.405Z,8.95
2022-11-15T00:21:29.863Z,8.96
2022-11-15T00:24:10.790Z,8.98
2022-11-15T00:26:51.417Z,9.00
2022-11-15T00:29:31.738Z,9.02
2022-11-15T00:32:12.322Z,9.04
2022-11-15T00:34:52.971Z,9.08
2022-11-15T00:37:33.521Z,9.12
2022-11-15T00:40:15.167Z,9.13
2022-11-15T00:42:55.742Z,9.19
2022-11-15T00:45:36.176Z,9.21
2022-11-15T00:48:16.611Z,9.23
2022-11-15T00:50:57.884Z,9.26
2022-11-15T00:53:38.464Z,9.28
2022-11-15T00:56:19.292Z,9.31
2022-11-15T00:58:59.607Z,9.33
2022-11-15T01:01:39.921Z,9.35
2022-11-15T01:04:20.863Z,9.38
2022-11-15T01:07:01.307Z,9.40
2022-11-15T01:09:41.619Z,9.39
2022-11-15T01:12:21.751Z,9.41
2022-11-15T01:15:02.506Z,9.41
2022-11-15T01:17:42.744Z,9.44
2022-11-15T01:20:22.846Z,9.46
2022-11-15T01:23:03.236Z,9.47
2022-11-15T01:25:43.819Z,9.49
2022-11-15T01:28:24.220Z,9.50
2022-11-15T01:31:08.692Z,9.54
2022-11-15T01:33:49.763Z,9.56
2022-11-15T01:36:30.173Z,9.57
2022-11-15T01:39:10.531Z,9.57
2022-11-15T01:41:50.882Z,9.58
2022-11-15T01:44:52.909Z,9.59
2022-11-15T01:47:44.127Z,9.60
2022-11-15T01:50:32.547Z,9.60
2022-11-15T01:53:13.493Z,9.62
2022-11-15T01:55:55.266Z,9.62
2022-11-15T01:58:38.041Z,9.64
2022-11-15T02:01:18.878Z,9.66
2022-11-15T02:04:08.155Z,9.67
2022-11-15T02:06:49.809Z,9.68
2022-11-15T02:09:31.147Z,9.69
2022-11-15T02:12:16.284Z,9.70
2022-11-15T02:14:57.722Z,9.70
2022-11-15T02:18:06.866Z,9.73
2022-11-15T02:21:23.597Z,9.74
2022-11-15T02:24:33.414Z,9.77
2022-11-15T02:27:47.944Z,9.79
2022-11-15T02:30:54.022Z,9.82
2022-11-15T02:34:09.372Z,9.85
2022-11-15T02:37:27.043Z,9.89
2022-11-15T02:40:44.477Z,9.93
2022-11-15T02:44:11.741Z,9.96
2022-11-15T02:47:15.891Z,10.00
2022-11-15T02:50:01.978Z,10.06
2022-11-15T02:52:46.460Z,10.13
2022-11-15T02:55:41.972Z,10.17
2022-11-15T02:58:42.171Z,10.25
2022-11-15T03:01:44.537Z,10.31
2022-11-15T03:04:52.845Z,10.38
2022-11-15T03:08:06.143Z,10.44
2022-11-15T03:10:59.229Z,10.52
2022-11-15T03:14:20.006Z,10.60
2022-11-15T03:17:07.359Z,10.65
2022-11-15T03:19:55.148Z,10.71
2022-11-15T03:22:43.641Z,10.75
2022-11-15T03:25:28.280Z,10.80
2022-11-15T03:28:18.165Z,10.86
2022-11-15T03:31:23.951Z,10.90
2022-11-15T03:34:11.479Z,10.96
2022-11-15T03:36:53.825Z,10.99
2022-11-15T03:39:35.872Z,11.03
2022-11-15T03:42:43.374Z,11.08
2022-11-15T03:45:35.157Z,11.10
2022-11-15T03:48:27.599Z,11.13
2022-11-15T03:51:08.612Z,11.16
2022-11-15T03:53:49.305Z,11.20
2022-11-15T03:56:29.664Z,11.23
2022-11-15T03:59:10.349Z,11.26
2022-11-15T04:01:50.582Z,11.26
2022-11-15T04:04:31.198Z,11.30
2022-11-15T04:07:12.186Z,11.30
2022-11-15T04:10:04.948Z,11.32
2022-11-15T04:12:48.702Z,11.37
2022-11-15T04:15:30.331Z,11.41
2022-11-15T04:18:10.796Z,11.43
2022-11-15T04:21:09.587Z,11.47
2022-11-15T04:23:52.614Z,11.48
2022-11-15T04:26:33.443Z,11.51
2022-11-15T04:29:32.081Z,11.54
2022-11-15T04:32:12.669Z,11.55
2022-11-15T04:34:53.197Z,11.57
2022-11-15T04:37:33.529Z,11.59
2022-11-15T04:40:14.375Z,11.62
2022-11-15T04:42:56.316Z,11.65
2022-11-15T04:45:39.934Z,11.65
2022-11-15T04:48:20.702Z,11.67
2022-11-15T04:51:00.777Z,11.68
2022-11-15T04:53:41.112Z,11.69
2022-11-15T04:56:22.128Z,11.69
2022-11-15T04:59:02.664Z,11.70
2022-11-15T05:01:45.048Z,11.68
2022-11-15T05:04:26.229Z,11.68
2022-11-15T05:07:06.973Z,11.68
2022-11-15T05:09:47.792Z,11.67
2022-11-15T05:12:28.029Z,11.67
2022-11-15T05:15:10.008Z,11.66
2022-11-15T05:17:50.193Z,11.64
2022-11-15T05:20:30.648Z,11.64
2022-11-15T05:23:11.060Z,11.63
2022-11-15T05:25:51.747Z,11.61
2022-11-15T05:28:33.364Z,11.61
2022-11-15T05:31:17.368Z,11.60
2022-11-15T05:34:01.017Z,11.59
2022-11-15T05:36:46.803Z,11.57
2022-11-15T05:39:27.185Z,11.57
2022-11-15T05:42:15.231Z,11.56
2022-11-15T05:44:55.757Z,11.56
2022-11-15T05:47:40.235Z,11.55
2022-11-15T05:50:20.871Z,11.54
2022-11-15T05:53:05.303Z,11.53
2022-11-15T05:55:46.426Z,11.52
2022-11-15T05:58:27.299Z,11.53
2022-11-15T06:01:07.706Z,11.52
2022-11-15T06:03:48.094Z,11.53
2022-11-15T06:06:31.447Z,11.54
2022-11-15T06:09:11.495Z,11.54
2022-11-15T06:11:52.056Z,11.56
2022-11-15T06:14:32.511Z,11.55
2022-11-15T06:17:12.747Z,11.54
2022-11-15T06:19:53.083Z,11.54
2022-11-15T06:22:33.763Z,11.55
2022-11-15T06:25:14.568Z,11.56
2022-11-15T06:27:59.764Z,11.59
2022-11-15T06:30:40.479Z,11.57
2022-11-15T06:33:21.061Z,11.59
2022-11-15T06:36:09.227Z,11.60
2022-11-15T06:38:52.707Z,11.57
2022-11-15T06:41:36.861Z,11.59
2022-11-15T06:44:17.537Z,11.57
2022-11-15T06:46:57.620Z,11.57
2022-11-15T06:49:38.185Z,11.57
2022-11-15T06:52:22.701Z,11.57
2022-11-15T06:55:02.818Z,11.60
2022-11-15T06:57:52.033Z,11.63
2022-11-15T07:00:32.510Z,11.63
2022-11-15T07:03:13.279Z,11.63
2022-11-15T07:05:56.207Z,11.61
2022-11-15T07:08:37.295Z,11.62
2022-11-15T07:11:17.791Z,11.63
2022-11-15T07:13:58.320Z,11.63
2022-11-15T07:16:39.005Z,11.64
2022-11-15T07:19:19.587Z,11.64
2022-11-15T07:21:59.989Z,11.69
2022-11-15T07:24:40.532Z,11.69
2022-11-15T07:27:20.999Z,11.68
2022-11-15T07:30:01.986Z,11.66
2022-11-15T07:32:42.465Z,11.65
2022-11-15T07:35:23.995Z,11.67
2022-11-15T07:38:04.773Z,11.69
2022-11-15T07:40:45.075Z,11.68
2022-11-15T07:43:25.950Z,11.67
2022-11-15T07:46:10.471Z,11.69
2022-11-15T07:48:51.116Z,11.68
2022-11-15T07:51:31.728Z,11.71
2022-11-15T07:54:12.390Z,11.71
2022-11-15T07:56:53.458Z,11.75
2022-11-15T07:59:34.505Z,11.75
2022-11-15T08:02:17.449Z,11.78
2022-11-15T08:04:58.330Z,11.79
2022-11-15T08:07:39.261Z,11.81
2022-11-15T08:10:21.095Z,11.81
2022-11-15T08:13:07.462Z,11.82
2022-11-15T08:15:50.130Z,11.79
2022-11-15T08:18:33.965Z,11.77
2022-11-15T08:21:20.543Z,11.76
2022-11-15T08:24:01.258Z,11.77
2022-11-15T08:26:41.971Z,11.77
2022-11-15T08:29:22.541Z,11.77
2022-11-15T08:32:03.016Z,11.73
2022-11-15T08:34:43.402Z,11.70
2022-11-15T08:37:23.775Z,11.66
2022-11-15T08:40:06.191Z,11.64
2022-11-15T08:42:50.279Z,11.66
2022-11-15T08:45:32.239Z,11.66
2022-11-15T08:48:13.019Z,11.65
2022-11-15T08:50:57.589Z,11.64
2022-11-15T08:53:38.080Z,11.64
2022-11-15T08:56:18.562Z,11.65
2022-11-15T08:58:58.758Z,11.67
2022-11-15T09:01:39.542Z,11.72
2022-11-15T09:04:19.843Z,11.75
2022-11-15T09:07:00.448Z,11.79
2022-11-15T09:09:41.068Z,11.83
2022-11-15T09:12:21.756Z,11.89
2022-11-15T09:15:02.156Z,11.92
2022-11-15T09:17:43.543Z,11.96
2022-11-15T09:20:24.011Z,12.01
2022-11-15T09:23:06.139Z,12.05
2022-11-15T09:25:46.452Z,12.10
2022-11-15T09:28:27.161Z,12.13
2022-11-15T09:31:07.541Z,12.16
2022-11-15T09:33:47.930Z,12.17
2022-11-15T09:36:28.606Z,12.24
2022-11-15T09:39:09.128Z,12.31
2022-11-15T09:41:58.167Z,12.39
2022-11-15T09:45:19.006Z,12.45
2022-11-15T09:48:37.638Z,12.53
2022-11-15T09:51:35.243Z,12.51
2022-11-15T09:57:16.243Z,12.52
2022-11-15T10:00:44.234Z,12.52
2022-11-15T10:03:17.532Z,12.55
2022-11-15T10:05:48.171Z,12.58
2022-11-15T10:08:53.567Z,12.63
2022-11-15T10:11:41.978Z,12.66
2022-11-15T10:14:16.778Z,12.69
2022-11-15T10:16:53.741Z,12.75
2022-11-15T10:19:38.989Z,12.80
2022-11-15T10:22:18.177Z,12.76
2022-11-15T10:24:45.380Z,12.74
2022-11-15T10:27:19.736Z,12.79
2022-11-15T10:29:47.363Z,12.79
2022-11-15T10:32:13.154Z,12.79
2022-11-15T10:34:37.431Z,12.78
2022-11-15T10:37:02.996Z,12.80
2022-11-15T10:39:26.071Z,12.87
2022-11-15T10:41:48.164Z,12.94
2022-11-15T10:44:32.874Z,12.97
2022-11-15T10:46:57.935Z,12.96
2022-11-15T10:49:32.179Z,12.97
2022-11-15T10:51:58.342Z,12.97
2022-11-15T10:54:43.643Z,12.96
2022-11-15T10:57:24.976Z,12.92
2022-11-15T10:59:52.153Z,12.87
2022-11-15T11:02:45.609Z,12.87
2022-11-15T11:05:42.095Z,12.87
2022-11-15T11:08:17.076Z,12.91
2022-11-15T11:11:01.447Z,12.94
2022-11-15T11:13:28.271Z,12.98
2022-11-15T11:16:07.171Z,13.07
2022-11-15T11:18:46.676Z,13.19
2022-11-15T11:21:18.496Z,13.25
2022-11-15T11:24:31.775Z,13.27
2022-11-15T11:27:21.431Z,13.33
2022-11-15T11:29:49.266Z,13.39
2022-11-15T11:33:10.187Z,13.45
2022-11-15T11:36:17.256Z,13.44
2022-11-15T11:39:25.262Z,13.41
2022-11-15T11:42:16.117Z,13.43
2022-11-15T11:45:17.182Z,13.45
2022-11-15T11:47:52.283Z,13.45
2022-11-15T11:50:28.951Z,13.43
2022-11-15T11:53:05.796Z,13.39
2022-11-15T11:55:39.661Z,13.34
2022-11-15T11:58:33.101Z,13.34
2022-11-15T12:01:31.941Z,13.35
2022-11-15T12:04:15.580Z,13.38
2022-11-15T12:07:32.181Z,13.43
2022-11-15T12:10:06.704Z,13.49
2022-11-15T12:12:52.581Z,13.57
2022-11-15T12:15:21.990Z,13.61
2022-11-15T12:17:46.946Z,13.68
2022-11-15T12:20:26.096Z,13.74
2022-11-15T12:22:58.204Z,13.77
2022-11-15T12:25:29.921Z,13.84
2022-11-15T12:28:01.403Z,13.90
2022-11-15T12:30:27.092Z,13.95
2022-11-15T12:33:01.642Z,14.02
2022-11-15T12:35:44.072Z,14.05
2022-11-15T12:38:31.845Z,14.05
2022-11-15T12:41:16.007Z,14.08
2022-11-15T12:43:44.082Z,14.08
2022-11-15T12:46:12.432Z,14.07
2022-11-15T12:48:37.275Z,14.09
2022-11-15T12:51:01.034Z,14.08
2022-11-15T12:53:26.093Z,14.07
2022-11-15T12:56:13.478Z,14.06
2022-11-15T12:59:01.966Z,14.05
2022-11-15T13:01:33.581Z,14.00
2022-11-15T13:04:27.984Z,13.98
2022-11-15T13:07:04.364Z,13.97
2022-11-15T13:09:29.355Z,13.93
2022-11-15T13:11:52.658Z,13.88
2022-11-15T13:14:45.761Z,13.84
2022-11-15T13:17:19.918Z,13.80
2022-11-15T13:19:42.309Z,13.78
2022-11-15T13:22:29.155Z,13.77
2022-11-15T13:24:51.129Z,13.77
2022-11-15T13:27:21.046Z,13.81
2022-11-15T13:29:44.690Z,13.80
2022-11-15T13:32:16.458Z,13.80
2022-11-15T13:34:54.032Z,13.80
2022-11-15T13:37:21.985Z,13.83
2022-11-15T13:39:43.980Z,13.80
2022-11-15T13:42:06.023Z,13.79
2022-11-15T13:44:34.477Z,13.77
2022-11-15T13:47:14.542Z,13.76
2022-11-15T13:49:36.603Z,13.73
2022-11-15T13:52:00.925Z,13.70
2022-11-15T13:54:33.843Z,13.68
2022-11-15T13:57:26.649Z,13.66
2022-11-15T13:59:55.752Z,13.61
2022-11-15T14:02:32.482Z,13.60
2022-11-15T14:05:20.787Z,13.56
2022-11-15T14:08:13.270Z,13.56
2022-11-15T14:10:38.517Z,13.55
2022-11-15T14:13:01.586Z,13.54
2022-11-15T14:15:35.989Z,13.51
2022-11-15T14:17:58.474Z,13.48
2022-11-15T14:20:36.458Z,13.46
2022-11-15T14:23:25.804Z,13.44
2022-11-15T14:25:59.730Z,13.45
2022-11-15T14:28:24.598Z,13.42
2022-11-15T14:30:51.012Z,13.40
2022-11-15T14:33:30.797Z,13.37
2022-11-15T14:35:53.906Z,13.30
2022-11-15T14:38:16.303Z,13.26
2022-11-15T14:40:38.853Z,13.25
2022-11-15T14:43:01.338Z,13.23
2022-11-15T14:45:23.845Z,13.21
2022-11-15T14:47:46.544Z,13.19
2022-11-15T14:50:16.866Z,13.17
2022-11-15T14:52:38.854Z,13.15
2022-11-15T14:55:03.321Z,13.13
2022-11-15T14:57:25.499Z,13.08
2022-11-15T14:59:47.868Z,13.02
2022-11-15T15:02:22.679Z,13.02
2022-11-15T15:04:44.598Z,13.01
2022-11-15T15:07:06.701Z,13.03
2022-11-15T15:09:28.861Z,13.02
2022-11-15T15:11:50.699Z,13.01
2022-11-15T15:14:15.328Z,12.99
2022-11-15T15:16:37.382Z,12.99
2022-11-15T15:18:59.299Z,12.96
2022-11-15T15:21:36.769Z,12.95
2022-11-15T15:23:59.479Z,12.91
2022-11-15T15:26:23.618Z,12.91
2022-11-15T15:28:52.309Z,12.87
2022-11-15T15:31:14.372Z,12.85
2022-11-15T15:33:37.259Z,12.84
2022-11-15T15:36:00.224Z,12.85
2022-11-15T15:38:22.655Z,12.84
2022-11-15T15:40:44.902Z,12.84
2022-11-15T15:43:09.912Z,12.84
2022-11-15T15:45:33.302Z,12.83
2022-11-15T15:47:55.472Z,12.84
2022-11-15T15:50:26.336Z,12.82
2022-11-15T15:52:48.790Z,12.81
2022-11-15T15:55:11.669Z,12.79
2022-11-15T15:57:33.697Z,12.78
2022-11-15T15:59:55.561Z,12.78
2022-11-15T16:02:17.430Z,12.77
2022-11-15T16:04:39.753Z,12.78
2022-11-15T16:07:03.459Z,12.77
2022-11-15T16:09:45.461Z,12.75
2022-11-15T16:12:07.465Z,12.76
2022-11-15T16:14:29.375Z,12.76
2022-11-15T16:16:51.289Z,12.76
2022-11-15T16:19:13.354Z,12.77
2022-11-15T16:21:36.772Z,12.78
2022-11-15T16:23:58.654Z,12.77
2022-11-15T16:26:29.184Z,12.79
2022-11-15T16:28:51.172Z,12.79
2022-11-15T16:31:14.097Z,12.79
2022-11-15T16:33:37.207Z,12.77
2022-11-15T16:35:59.483Z,12.79
2022-11-15T16:38:21.585Z,12.79
2022-11-15T16:40:43.862Z,12.80
2022-11-15T16:43:06.564Z,12.80
2022-11-15T16:45:29.424Z,12.81
2022-11-15T16:47:51.609Z,12.82
2022-11-15T16:50:26.454Z,12.86
2022-11-15T16:52:48.511Z,12.86
2022-11-15T16:55:10.668Z,12.85
2022-11-15T16:57:32.570Z,12.89
2022-11-15T16:59:54.490Z,12.89
2022-11-15T17:02:17.302Z,12.88
2022-11-15T17:04:39.550Z,12.83
2022-11-15T17:07:01.631Z,12.80
2022-11-15T17:09:24.822Z,12.80
2022-11-15T17:11:47.230Z,12.78
2022-11-15T17:14:10.008Z,12.78
2022-11-15T17:16:31.978Z,12.77
2022-11-15T17:18:54.019Z,12.73
2022-11-15T17:21:22.490Z,12.72
2022-11-15T17:23:44.852Z,12.70
2022-11-15T17:26:27.907Z,12.69
2022-11-15T17:28:49.563Z,12.67
2022-11-15T17:31:14.806Z,12.65
2022-11-15T17:33:38.129Z,12.64
2022-11-15T17:36:05.068Z,12.62
2022-11-15T17:38:28.520Z,12.61
2022-11-15T17:41:05.886Z,12.61
2022-11-15T17:43:28.357Z,12.57
2022-11-15T17:45:50.397Z,12.57
2022-11-15T17:48:12.303Z,12.55
2022-11-15T17:50:34.412Z,12.55
2022-11-15T17:52:57.460Z,12.53
2022-11-15T17:55:19.494Z,12.53
2022-11-15T17:57:43.616Z,12.50
2022-11-15T18:00:06.556Z,12.48
2022-11-15T18:02:28.413Z,12.46
2022-11-15T18:04:50.510Z,12.43
2022-11-15T18:07:14.281Z,12.42
2022-11-15T18:09:36.485Z,12.40
2022-11-15T18:11:58.775Z,12.37
2022-11-15T18:14:20.989Z,12.36
2022-11-15T18:16:43.049Z,12.34
2022-11-15T18:19:09.077Z,12.34
2022-11-15T18:21:34.002Z,12.35
2022-11-15T18:23:59.977Z,12.33
2022-11-15T18:26:27.104Z,12.31
2022-11-15T18:28:49.913Z,12.31
2022-11-15T18:31:29.244Z,12.30
2022-11-15T18:33:52.486Z,12.28
2022-11-15T18:36:19.355Z,12.27
2022-11-15T18:38:41.872Z,12.26
2022-11-15T18:41:12.366Z,12.26
2022-11-15T18:43:35.601Z,12.25
2022-11-15T18:46:13.320Z,12.25
2022-11-15T18:48:37.835Z,12.25
2022-11-15T18:51:07.754Z,12.21
2022-11-15T18:53:30.061Z,12.19
2022-11-15T18:55:52.014Z,12.19
2022-11-15T18:58:13.913Z,12.16
2022-11-15T19:00:35.879Z,12.15
2022-11-15T19:02:57.840Z,12.17
2022-11-15T19:05:21.422Z,12.17
2022-11-15T19:07:43.331Z,12.17
2022-11-15T19:10:06.200Z,12.15
2022-11-15T19:12:28.068Z,12.16
2022-11-15T19:14:50.321Z,12.15
2022-11-15T19:17:12.254Z,12.16
2022-11-15T19:19:34.408Z,12.17
2022-11-15T19:21:57.535Z,12.16
2022-11-15T19:24:20.491Z,12.16
2022-11-15T19:26:43.750Z,12.18
2022-11-15T19:29:10.373Z,12.19
2022-11-15T19:31:33.308Z,12.18
2022-11-15T19:33:58.221Z,12.18
2022-11-15T19:36:32.373Z,12.19
2022-11-15T19:38:56.042Z,12.21
2022-11-15T19:41:22.774Z,12.20
2022-11-15T19:43:47.999Z,12.20
2022-11-15T19:46:12.345Z,12.21
2022-11-15T19:48:35.116Z,12.23
2022-11-15T19:51:05.529Z,12.23
2022-11-15T19:53:33.341Z,12.24
2022-11-15T19:56:01.909Z,12.24
2022-11-15T19:58:24.731Z,12.25
2022-11-15T20:00:46.664Z,12.26
2022-11-15T20:03:08.554Z,12.27
2022-11-15T20:05:30.480Z,12.27
2022-11-15T20:07:52.381Z,12.28
2022-11-15T20:10:18.132Z,12.27
2022-11-15T20:12:42.988Z,12.28
2022-11-15T20:15:06.378Z,12.28
2022-11-15T20:17:28.253Z,12.28
2022-11-15T20:19:50.267Z,12.27
2022-11-15T20:22:12.284Z,12.28
2022-11-15T20:24:35.377Z,12.30
2022-11-15T20:26:57.945Z,12.29
2022-11-15T20:29:20.010Z,12.29
2022-11-15T20:31:42.489Z,12.28
2022-11-15T20:34:05.400Z,12.29
2022-11-15T20:36:31.455Z,12.29
2022-11-15T20:39:00.659Z,12.29
2022-11-15T20:41:23.046Z,12.28
2022-11-15T20:43:45.732Z,12.27
2022-11-15T20:46:07.729Z,12.28
2022-11-15T20:48:30.709Z,12.29
2022-11-15T20:51:09.773Z,12.30
2022-11-15T20:53:32.409Z,12.29
2022-11-15T20:55:55.099Z,12.30
2022-11-15T20:58:18.234Z,12.31
2022-11-15T21:00:42.145Z,12.30
2022-11-15T21:03:07.696Z,12.29
2022-11-15T21:05:29.881Z,12.28
2022-11-15T21:07:51.721Z,12.28
2022-11-15T21:10:31.974Z,12.29
2022-11-15T21:12:53.964Z,12.27
2022-11-15T21:15:16.057Z,12.28
2022-11-15T21:17:37.991Z,12.27
2022-11-15T21:20:00.061Z,12.29
2022-11-15T21:22:22.055Z,12.29
2022-11-15T21:24:43.971Z,12.30
2022-11-15T21:27:06.465Z,12.31
2022-11-15T21:29:36.360Z,12.31
2022-11-15T21:32:00.680Z,12.33
2022-11-15T21:34:24.794Z,12.34
2022-11-15T21:36:47.050Z,12.34
2022-11-15T21:39:09.938Z,12.34
2022-11-15T21:41:32.496Z,12.35
2022-11-15T21:43:59.539Z,12.36
2022-11-15T21:46:21.520Z,12.35
2022-11-15T21:48:43.676Z,12.36
2022-11-15T21:51:11.072Z,12.37
2022-11-15T21:53:34.219Z,12.37
2022-11-15T21:55:56.524Z,12.36
2022-11-15T21:58:19.927Z,12.36
2022-11-15T22:01:20.162Z,12.35
2022-11-15T22:03:43.647Z,12.36
2022-11-15T22:06:05.952Z,12.36
2022-11-15T22:08:28.076Z,12.35
2022-11-15T22:10:51.127Z,12.36
2022-11-15T22:13:13.761Z,12.35
2022-11-15T22:15:36.067Z,12.36
2022-11-15T22:17:57.872Z,12.36
2022-11-15T22:20:43.679Z,12.37
2022-11-15T22:23:02.843Z,12.35
2022-11-15T22:25:26.230Z,12.37
2022-11-15T22:27:48.162Z,12.36
2022-11-15T22:30:11.152Z,12.38
2022-11-15T22:32:33.155Z,12.36
2022-11-15T22:34:55.133Z,12.37
2022-11-15T22:37:21.162Z,12.37
2022-11-15T22:39:43.250Z,12.37
2022-11-15T22:42:05.122Z,12.39
2022-11-15T22:44:26.904Z,12.39
2022-11-15T22:46:48.731Z,12.40
2022-11-15T22:49:10.617Z,12.39
2022-11-15T22:51:32.473Z,12.40
2022-11-15T22:53:54.310Z,12.40
2022-11-15T22:56:20.114Z,12.40
2022-11-15T22:58:42.245Z,12.40
2022-11-15T23:01:05.964Z,12.42
2022-11-15T23:03:29.608Z,12.42
2022-11-15T23:05:51.738Z,12.42
2022-11-15T23:08:14.390Z,12.42
2022-11-15T23:10:58.580Z,12.44
2022-11-15T23:13:20.497Z,12.43
2022-11-15T23:16:08.600Z,12.44
2022-11-15T23:18:37.712Z,12.45
2022-11-15T23:20:59.676Z,12.46
2022-11-15T23:23:21.786Z,12.45
2022-11-15T23:25:43.698Z,12.45
2022-11-15T23:28:06.152Z,12.45
2022-11-15T23:30:46.519Z,12.45
2022-11-15T23:33:34.122Z,12.43
2022-11-15T23:35:56.273Z,12.41
2022-11-15T23:38:21.419Z,12.43
2022-11-15T23:40:43.522Z,12.45
2022-11-15T23:43:05.536Z,12.43
2022-11-15T23:45:27.593Z,12.45
2022-11-15T23:47:49.625Z,12.46
2022-11-15T23:50:11.865Z,12.47
2022-11-15T23:52:33.784Z,12.47
2022-11-15T23:54:55.643Z,12.46
2022-11-15T23:57:17.604Z,12.46
2022-11-15T23:59:43.615Z,12.46
